Time;durP1;ratioP1;P1;durP2;ratioP2;P2;SDS_P1;SDS_P2;PMS_P1;PMS_P2;Temp;Humidity;BMP_temperature;BMP_pressure;BME280_temperature;BME280_humidity;BME280_pressure;Samples;Min_cycle;Max_cycle;Signal;HPM_P1;HPM_P2
2023/05/28 00:00:21;;;;;;;10.20;6.50;;;;;;;-128.00;-1.00;-1.00;105735;1251;1004118;-76
2023/05/28 00:03:08;;;;;;;10.10;6.40;;;;;;;-128.00;-1.00;-1.00;105730;1251;1059007;-76
2023/05/28 00:05:35;;;;;;;12.40;6.80;;;;;;;-128.00;-1.00;-1.00;105783;1251;1004717;-77
2023/05/28 00:08:02;;;;;;;9.50;6.20;;;;;;;-128.00;-1.00;-1.00;105711;1251;1004365;-77
2023/05/28 00:10:28;;;;;;;9.00;5.40;;;;;;;-128.00;-1.00;-1.00;105753;1251;1004720;-76
2023/05/28 00:12:55;;;;;;;9.80;5.70;;;;;;;-128.00;-1.00;-1.00;105719;1251;1003930;-77
2023/05/28 00:15:21;;;;;;;10.60;6.40;;;;;;;-128.00;-1.00;-1.00;105714;1251;1004244;-77
2023/05/28 00:17:48;;;;;;;8.50;5.40;;;;;;;-128.00;-1.00;-1.00;105711;1251;1004435;-77
2023/05/28 00:20:14;;;;;;;9.50;5.90;;;;;;;-128.00;-1.00;-1.00;105697;1251;1004309;-76
2023/05/28 00:22:41;;;;;;;6.60;5.20;;;;;;;-128.00;-1.00;-1.00;105754;1251;1004599;-77
2023/05/28 00:25:10;;;;;;;9.10;5.70;;;;;;;-128.00;-1.00;-1.00;105781;1251;1004499;-77
2023/05/28 00:27:37;;;;;;;7.90;5.30;;;;;;;-128.00;-1.00;-1.00;105743;1251;1058106;-77
2023/05/28 00:30:04;;;;;;;10.70;5.40;;;;;;;-128.00;-1.00;-1.00;105674;1251;1004495;-76
2023/05/28 00:32:30;;;;;;;8.70;5.20;;;;;;;-128.00;-1.00;-1.00;105753;1251;1003603;-76
2023/05/28 00:34:57;;;;;;;8.80;5.50;;;;;;;-128.00;-1.00;-1.00;105528;1251;1004183;-76
2023/05/28 00:37:23;;;;;;;9.40;5.70;;;;;;;-128.00;-1.00;-1.00;105752;1251;1004377;-76
2023/05/28 00:39:50;;;;;;;11.40;6.10;;;;;;;-128.00;-1.00;-1.00;105691;1251;1004324;-76
2023/05/28 00:42:17;;;;;;;11.30;5.40;;;;;;;-128.00;-1.00;-1.00;105706;1252;1003681;-76
2023/05/28 00:44:44;;;;;;;9.30;6.00;;;;;;;-128.00;-1.00;-1.00;105760;1251;1003959;-77
2023/05/28 00:47:12;;;;;;;8.70;6.20;;;;;;;-128.00;-1.00;-1.00;105737;1251;1004598;-77
2023/05/28 00:49:39;;;;;;;12.20;6.40;;;;;;;-128.00;-1.00;-1.00;105764;1251;1004566;-77
2023/05/28 00:52:08;;;;;;;11.70;6.00;;;;;;;-128.00;-1.00;-1.00;105713;1251;1004516;-77
2023/05/28 00:54:34;;;;;;;9.30;5.40;;;;;;;-128.00;-1.00;-1.00;105726;1251;1045602;-77
2023/05/28 00:57:01;;;;;;;10.10;6.20;;;;;;;-128.00;-1.00;-1.00;105690;1251;1003947;-77
2023/05/28 00:59:28;;;;;;;12.60;6.90;;;;;;;-128.00;-1.00;-1.00;105768;1251;1003782;-77
2023/05/28 01:01:54;;;;;;;13.90;6.60;;;;;;;-128.00;-1.00;-1.00;105448;1251;1005093;-77
2023/05/28 01:04:28;;;;;;;8.00;5.30;;;;;;;-128.00;-1.00;-1.00;105734;1251;1005055;-76
2023/05/28 01:06:58;;;;;;;8.90;5.80;;;;;;;-128.00;-1.00;-1.00;105714;1251;1046307;-78
2023/05/28 01:09:25;;;;;;;9.30;5.80;;;;;;;-128.00;-1.00;-1.00;105724;1251;1047854;-76
2023/05/28 01:11:54;;;;;;;10.30;5.50;;;;;;;-128.00;-1.00;-1.00;105782;1251;1004043;-77
2023/05/28 01:14:22;;;;;;;10.10;6.10;;;;;;;-128.00;-1.00;-1.00;105715;1251;1054845;-78
2023/05/28 01:16:49;;;;;;;9.20;5.90;;;;;;;-128.00;-1.00;-1.00;105715;1251;1004061;-78
2023/05/28 01:19:18;;;;;;;9.60;5.90;;;;;;;-128.00;-1.00;-1.00;105736;1251;1004080;-78
2023/05/28 01:21:46;;;;;;;10.20;5.80;;;;;;;-128.00;-1.00;-1.00;105756;1252;1047355;-78
2023/05/28 01:24:15;;;;;;;12.50;5.90;;;;;;;-128.00;-1.00;-1.00;105724;1251;1004773;-78
2023/05/28 01:26:43;;;;;;;7.70;5.50;;;;;;;-128.00;-1.00;-1.00;105552;1251;1055154;-77
2023/05/28 01:29:17;;;;;;;10.50;5.50;;;;;;;-128.00;-1.00;-1.00;105704;1251;1004017;-78
2023/05/28 01:31:43;;;;;;;9.90;5.70;;;;;;;-128.00;-1.00;-1.00;105708;1251;1046613;-77
2023/05/28 01:34:11;;;;;;;9.10;5.70;;;;;;;-128.00;-1.00;-1.00;105581;1251;1003813;-78
2023/05/28 01:36:44;;;;;;;7.50;5.00;;;;;;;-128.00;-1.00;-1.00;105731;1251;1004037;-78
2023/05/28 01:39:15;;;;;;;8.70;6.20;;;;;;;-128.00;-1.00;-1.00;105779;1251;1056758;-76
2023/05/28 01:41:44;;;;;;;8.60;5.30;;;;;;;-128.00;-1.00;-1.00;105708;1251;1058980;-76
2023/05/28 01:44:16;;;;;;;11.10;5.40;;;;;;;-128.00;-1.00;-1.00;105772;1251;1046764;-76
2023/05/28 01:46:44;;;;;;;12.00;5.70;;;;;;;-128.00;-1.00;-1.00;105734;1251;1046123;-77
2023/05/28 01:49:11;;;;;;;11.20;6.20;;;;;;;-128.00;-1.00;-1.00;105730;1251;1005141;-77
2023/05/28 01:51:37;;;;;;;8.80;5.80;;;;;;;-128.00;-1.00;-1.00;105802;1251;1004113;-77
2023/05/28 01:54:04;;;;;;;8.50;5.70;;;;;;;-128.00;-1.00;-1.00;105721;1251;1003443;-76
2023/05/28 01:56:31;;;;;;;13.90;5.80;;;;;;;-128.00;-1.00;-1.00;105742;1251;1003958;-76
2023/05/28 01:58:57;;;;;;;9.10;5.10;;;;;;;-128.00;-1.00;-1.00;105711;1251;1005147;-76
2023/05/28 02:01:28;;;;;;;8.90;6.20;;;;;;;-128.00;-1.00;-1.00;105726;1251;1005522;-76
2023/05/28 02:03:56;;;;;;;7.80;5.90;;;;;;;-128.00;-1.00;-1.00;105819;1251;1056142;-76
2023/05/28 02:06:24;;;;;;;9.80;6.40;;;;;;;-128.00;-1.00;-1.00;105783;1251;1005531;-77
2023/05/28 02:08:51;;;;;;;8.90;5.30;;;;;;;-128.00;-1.00;-1.00;105736;1251;1003733;-76
2023/05/28 02:11:18;;;;;;;7.90;5.40;;;;;;;-128.00;-1.00;-1.00;105704;1251;1004316;-77
2023/05/28 02:13:46;;;;;;;6.90;4.80;;;;;;;-128.00;-1.00;-1.00;105725;1251;1004366;-77
2023/05/28 02:16:17;;;;;;;6.40;4.60;;;;;;;-128.00;-1.00;-1.00;105487;1251;1004749;-77
2023/05/28 02:18:45;;;;;;;8.00;4.70;;;;;;;-128.00;-1.00;-1.00;105719;1252;1059377;-76
2023/05/28 02:21:12;;;;;;;7.70;5.10;;;;;;;-128.00;-1.00;-1.00;105666;1251;1003680;-76
2023/05/28 02:23:43;;;;;;;8.60;5.10;;;;;;;-128.00;-1.00;-1.00;105715;1252;1005463;-77
2023/05/28 02:26:10;;;;;;;9.00;5.10;;;;;;;-128.00;-1.00;-1.00;105723;1251;1062556;-78
2023/05/28 02:28:37;;;;;;;9.40;5.10;;;;;;;-128.00;-1.00;-1.00;105758;1251;1003974;-77
2023/05/28 02:31:03;;;;;;;6.50;4.60;;;;;;;-128.00;-1.00;-1.00;105722;1251;1003952;-77
2023/05/28 02:33:32;;;;;;;8.10;5.20;;;;;;;-128.00;-1.00;-1.00;105740;1251;1003293;-77
2023/05/28 02:35:58;;;;;;;8.10;4.80;;;;;;;-128.00;-1.00;-1.00;105761;1251;1004801;-76
2023/05/28 02:38:25;;;;;;;6.10;4.30;;;;;;;-128.00;-1.00;-1.00;105762;1251;1003531;-77
2023/05/28 02:40:51;;;;;;;7.40;4.60;;;;;;;-128.00;-1.00;-1.00;105771;1251;1004443;-77
2023/05/28 02:43:18;;;;;;;8.30;5.20;;;;;;;-128.00;-1.00;-1.00;105558;1251;1003801;-77
2023/05/28 02:45:44;;;;;;;7.40;5.30;;;;;;;-128.00;-1.00;-1.00;105717;1251;1003600;-77
2023/05/28 02:48:11;;;;;;;9.70;5.10;;;;;;;-128.00;-1.00;-1.00;105764;1251;1003341;-77
2023/05/28 02:50:38;;;;;;;9.40;5.50;;;;;;;-128.00;-1.00;-1.00;105712;1251;1004461;-77
2023/05/28 02:53:04;;;;;;;7.80;5.90;;;;;;;-128.00;-1.00;-1.00;105778;1251;1004363;-77
2023/05/28 02:55:31;;;;;;;7.20;5.20;;;;;;;-128.00;-1.00;-1.00;105765;1251;1006007;-77
2023/05/28 02:57:57;;;;;;;9.80;5.40;;;;;;;-128.00;-1.00;-1.00;105744;1251;1004360;-77
2023/05/28 03:00:24;;;;;;;8.60;5.80;;;;;;;-128.00;-1.00;-1.00;105801;1251;1004731;-78
2023/05/28 03:02:50;;;;;;;6.90;5.40;;;;;;;-128.00;-1.00;-1.00;105726;1251;1004662;-77
2023/05/28 03:05:18;;;;;;;8.30;5.00;;;;;;;-128.00;-1.00;-1.00;105784;1251;1003729;-78
2023/05/28 03:07:44;;;;;;;9.70;6.30;;;;;;;-128.00;-1.00;-1.00;105785;1251;1003288;-77
2023/05/28 03:10:11;;;;;;;9.90;5.80;;;;;;;-128.00;-1.00;-1.00;105470;1251;1003821;-77
2023/05/28 03:12:37;;;;;;;9.30;6.30;;;;;;;-128.00;-1.00;-1.00;105780;1251;1003968;-77
2023/05/28 03:15:05;;;;;;;9.00;5.80;;;;;;;-128.00;-1.00;-1.00;105768;1251;1004704;-77
2023/05/28 03:17:31;;;;;;;9.80;5.90;;;;;;;-128.00;-1.00;-1.00;105514;1251;1004622;-77
2023/05/28 03:19:58;;;;;;;11.20;5.90;;;;;;;-128.00;-1.00;-1.00;105766;1251;1003715;-77
2023/05/28 03:22:25;;;;;;;10.30;5.80;;;;;;;-128.00;-1.00;-1.00;105779;1251;1005182;-76
2023/05/28 03:24:51;;;;;;;7.80;5.60;;;;;;;-128.00;-1.00;-1.00;105775;1251;1004816;-77
2023/05/28 03:27:17;;;;;;;6.90;5.60;;;;;;;-128.00;-1.00;-1.00;105789;1251;1004068;-78
2023/05/28 03:29:44;;;;;;;9.70;6.00;;;;;;;-128.00;-1.00;-1.00;105521;1253;1004385;-79
2023/05/28 03:32:10;;;;;;;7.60;5.70;;;;;;;-128.00;-1.00;-1.00;105774;1251;1004515;-78
2023/05/28 03:34:37;;;;;;;7.50;5.90;;;;;;;-128.00;-1.00;-1.00;105645;1251;1005037;-77
2023/05/28 03:37:04;;;;;;;8.00;5.70;;;;;;;-128.00;-1.00;-1.00;105977;1251;1003806;-78
2023/05/28 03:39:30;;;;;;;8.20;5.40;;;;;;;-128.00;-1.00;-1.00;105724;1251;1003926;-77
2023/05/28 03:41:57;;;;;;;9.00;5.50;;;;;;;-128.00;-1.00;-1.00;105957;1251;1004139;-77
2023/05/28 03:44:23;;;;;;;7.50;5.00;;;;;;;-128.00;-1.00;-1.00;105771;1251;1004340;-77
2023/05/28 03:46:50;;;;;;;8.00;5.20;;;;;;;-128.00;-1.00;-1.00;105779;1251;1004709;-77
2023/05/28 03:49:16;;;;;;;10.00;5.90;;;;;;;-128.00;-1.00;-1.00;105757;1251;1003698;-76
2023/05/28 03:51:43;;;;;;;6.20;5.40;;;;;;;-128.00;-1.00;-1.00;105767;1253;1004321;-76
2023/05/28 03:54:09;;;;;;;6.80;5.10;;;;;;;-128.00;-1.00;-1.00;105795;1251;1004558;-78
2023/05/28 03:56:36;;;;;;;8.10;5.30;;;;;;;-128.00;-1.00;-1.00;105757;1252;1004181;-77
2023/05/28 03:59:02;;;;;;;10.00;6.00;;;;;;;-128.00;-1.00;-1.00;105500;1251;1004219;-77
2023/05/28 04:01:29;;;;;;;7.50;5.20;;;;;;;-128.00;-1.00;-1.00;105489;1251;1003939;-77
2023/05/28 04:03:55;;;;;;;9.70;5.40;;;;;;;-128.00;-1.00;-1.00;105799;1251;1003926;-77
2023/05/28 04:06:22;;;;;;;6.80;5.20;;;;;;;-128.00;-1.00;-1.00;105747;1251;1004230;-77
2023/05/28 04:08:49;;;;;;;8.30;5.80;;;;;;;-128.00;-1.00;-1.00;105770;1251;1004384;-77
2023/05/28 04:11:15;;;;;;;7.50;6.40;;;;;;;-128.00;-1.00;-1.00;105754;1252;1004302;-76
2023/05/28 04:13:42;;;;;;;7.60;5.70;;;;;;;-128.00;-1.00;-1.00;105455;1251;1003905;-76
2023/05/28 04:16:09;;;;;;;9.70;6.30;;;;;;;-128.00;-1.00;-1.00;105784;1251;1004730;-76
2023/05/28 04:18:35;;;;;;;9.20;6.50;;;;;;;-128.00;-1.00;-1.00;105535;1251;1003570;-78
2023/05/28 04:21:02;;;;;;;9.10;6.30;;;;;;;-128.00;-1.00;-1.00;105729;1252;1004693;-76
2023/05/28 04:23:29;;;;;;;13.40;6.80;;;;;;;-128.00;-1.00;-1.00;105713;1251;1004600;-77
2023/05/28 04:25:56;;;;;;;7.00;6.10;;;;;;;-128.00;-1.00;-1.00;105741;1251;1003616;-77
2023/05/28 04:28:27;;;;;;;8.60;6.30;;;;;;;-128.00;-1.00;-1.00;105761;1251;1004686;-76
2023/05/28 04:30:55;;;;;;;10.40;5.50;;;;;;;-128.00;-1.00;-1.00;105510;1251;1055790;-77
2023/05/28 04:33:21;;;;;;;7.10;5.30;;;;;;;-128.00;-1.00;-1.00;105763;1251;1003623;-76
2023/05/28 04:35:48;;;;;;;8.10;4.70;;;;;;;-128.00;-1.00;-1.00;105741;1251;1003595;-76
2023/05/28 04:38:15;;;;;;;9.60;6.60;;;;;;;-128.00;-1.00;-1.00;105785;1251;1005269;-77
2023/05/28 04:40:41;;;;;;;5.80;4.60;;;;;;;-128.00;-1.00;-1.00;105762;1251;1004843;-77
2023/05/28 04:43:08;;;;;;;6.90;4.40;;;;;;;-128.00;-1.00;-1.00;105742;1253;1004251;-77
2023/05/28 04:45:35;;;;;;;6.70;4.60;;;;;;;-128.00;-1.00;-1.00;105714;1251;1004223;-78
2023/05/28 04:48:02;;;;;;;5.50;4.40;;;;;;;-128.00;-1.00;-1.00;105735;1251;1003741;-76
2023/05/28 04:50:28;;;;;;;8.60;4.60;;;;;;;-128.00;-1.00;-1.00;105759;1251;1004369;-77
2023/05/28 04:52:55;;;;;;;6.40;5.00;;;;;;;-128.00;-1.00;-1.00;105782;1253;1003746;-77
2023/05/28 04:55:22;;;;;;;6.50;5.00;;;;;;;-128.00;-1.00;-1.00;105733;1251;1004426;-78
2023/05/28 04:57:48;;;;;;;6.50;4.60;;;;;;;-128.00;-1.00;-1.00;105738;1251;1004326;-78
2023/05/28 05:00:15;;;;;;;4.40;3.90;;;;;;;-128.00;-1.00;-1.00;105494;1251;1004599;-77
2023/05/28 05:02:42;;;;;;;6.40;4.20;;;;;;;-128.00;-1.00;-1.00;105720;1251;1004643;-77
2023/05/28 05:05:08;;;;;;;5.40;4.30;;;;;;;-128.00;-1.00;-1.00;105726;1251;1004836;-77
2023/05/28 05:07:38;;;;;;;8.40;4.20;;;;;;;-128.00;-1.00;-1.00;105789;1251;1004152;-77
2023/05/28 05:10:09;;;;;;;5.10;4.40;;;;;;;-128.00;-1.00;-1.00;105759;1251;1060121;-77
2023/05/28 05:12:36;;;;;;;5.40;4.20;;;;;;;-128.00;-1.00;-1.00;105697;1251;1044505;-77
2023/05/28 05:15:07;;;;;;;4.30;3.60;;;;;;;-128.00;-1.00;-1.00;105767;1251;1003627;-77
2023/05/28 05:17:34;;;;;;;5.40;4.00;;;;;;;-128.00;-1.00;-1.00;105742;1252;1062607;-77
2023/05/28 05:20:02;;;;;;;8.10;4.10;;;;;;;-128.00;-1.00;-1.00;105789;1251;1005048;-77
2023/05/28 05:22:30;;;;;;;5.70;3.90;;;;;;;-128.00;-1.00;-1.00;105504;1251;1003283;-77
2023/05/28 05:24:57;;;;;;;6.40;4.00;;;;;;;-128.00;-1.00;-1.00;105718;1251;1003506;-78
2023/05/28 05:27:23;;;;;;;5.10;3.90;;;;;;;-128.00;-1.00;-1.00;105782;1251;1003777;-77
2023/05/28 05:29:50;;;;;;;4.70;4.10;;;;;;;-128.00;-1.00;-1.00;105768;1251;1004173;-77
2023/05/28 05:32:16;;;;;;;4.30;3.60;;;;;;;-128.00;-1.00;-1.00;105755;1251;1004284;-78
2023/05/28 05:34:42;;;;;;;4.80;3.90;;;;;;;-128.00;-1.00;-1.00;105722;1251;1004012;-77
2023/05/28 05:37:09;;;;;;;5.90;4.40;;;;;;;-128.00;-1.00;-1.00;105742;1253;1004129;-77
2023/05/28 05:39:35;;;;;;;6.60;4.20;;;;;;;-128.00;-1.00;-1.00;105726;1251;1004407;-76
2023/05/28 05:42:02;;;;;;;5.90;4.20;;;;;;;-128.00;-1.00;-1.00;105786;1251;1004715;-76
2023/05/28 05:44:28;;;;;;;6.30;4.50;;;;;;;-128.00;-1.00;-1.00;105763;1251;1005036;-77
2023/05/28 05:46:55;;;;;;;5.60;4.20;;;;;;;-128.00;-1.00;-1.00;105736;1253;1004221;-76
2023/05/28 05:49:21;;;;;;;5.00;4.40;;;;;;;-128.00;-1.00;-1.00;105753;1251;1003816;-77
2023/05/28 05:51:48;;;;;;;4.50;3.50;;;;;;;-128.00;-1.00;-1.00;105754;1251;1004848;-77
2023/05/28 05:54:14;;;;;;;4.00;3.60;;;;;;;-128.00;-1.00;-1.00;105770;1251;1003643;-77
2023/05/28 05:56:41;;;;;;;9.30;3.40;;;;;;;-128.00;-1.00;-1.00;105756;1251;1004416;-77
2023/05/28 05:59:07;;;;;;;5.70;3.50;;;;;;;-128.00;-1.00;-1.00;105740;1253;1003961;-77
2023/05/28 06:01:34;;;;;;;6.90;3.90;;;;;;;-128.00;-1.00;-1.00;105526;1251;1003798;-77
2023/05/28 06:04:01;;;;;;;7.20;3.80;;;;;;;-128.00;-1.00;-1.00;105789;1251;1005324;-76
2023/05/28 06:06:28;;;;;;;5.90;3.60;;;;;;;-128.00;-1.00;-1.00;105721;1251;1004246;-79
2023/05/28 06:08:54;;;;;;;7.30;4.10;;;;;;;-128.00;-1.00;-1.00;105733;1251;1003781;-77
2023/05/28 06:11:22;;;;;;;6.20;3.40;;;;;;;-128.00;-1.00;-1.00;105469;1251;1004438;-77
2023/05/28 06:13:50;;;;;;;4.80;3.20;;;;;;;-128.00;-1.00;-1.00;105719;1251;1005144;-77
2023/05/28 06:16:17;;;;;;;5.10;4.00;;;;;;;-128.00;-1.00;-1.00;105778;1251;1003734;-78
2023/05/28 06:18:44;;;;;;;9.60;3.70;;;;;;;-128.00;-1.00;-1.00;105513;1251;1003531;-78
2023/05/28 06:21:11;;;;;;;4.70;3.70;;;;;;;-128.00;-1.00;-1.00;105713;1251;1003252;-78
2023/05/28 06:23:37;;;;;;;7.80;4.30;;;;;;;-128.00;-1.00;-1.00;105771;1251;1004568;-76
2023/05/28 06:26:04;;;;;;;6.20;3.80;;;;;;;-128.00;-1.00;-1.00;105694;1251;1004601;-77
2023/05/28 06:28:31;;;;;;;5.00;3.30;;;;;;;-128.00;-1.00;-1.00;105737;1251;1005717;-77
2023/05/28 06:30:58;;;;;;;5.00;4.00;;;;;;;-128.00;-1.00;-1.00;105698;1251;1003817;-76
2023/05/28 06:33:25;;;;;;;6.80;3.80;;;;;;;-128.00;-1.00;-1.00;105720;1251;1005644;-78
2023/05/28 06:35:51;;;;;;;5.40;3.60;;;;;;;-128.00;-1.00;-1.00;105716;1251;1003698;-78
2023/05/28 06:38:18;;;;;;;5.60;3.90;;;;;;;-128.00;-1.00;-1.00;105773;1251;1003583;-78
2023/05/28 06:40:44;;;;;;;9.30;3.90;;;;;;;-128.00;-1.00;-1.00;105746;1251;1004706;-76
2023/05/28 06:43:11;;;;;;;4.20;3.40;;;;;;;-128.00;-1.00;-1.00;105821;1251;1004973;-78
2023/05/28 06:45:38;;;;;;;8.30;4.20;;;;;;;-128.00;-1.00;-1.00;105819;1251;1003393;-78
2023/05/28 06:48:05;;;;;;;5.30;2.90;;;;;;;-128.00;-1.00;-1.00;105708;1253;1003676;-76
2023/05/28 06:50:32;;;;;;;4.10;3.40;;;;;;;-128.00;-1.00;-1.00;105704;1251;1004326;-78
2023/05/28 06:52:59;;;;;;;5.20;3.00;;;;;;;-128.00;-1.00;-1.00;105563;1251;1004142;-77
2023/05/28 06:55:25;;;;;;;6.10;3.60;;;;;;;-128.00;-1.00;-1.00;105727;1251;1005892;-78
2023/05/28 06:57:52;;;;;;;5.10;3.30;;;;;;;-128.00;-1.00;-1.00;105739;1251;1004245;-78
2023/05/28 07:00:18;;;;;;;5.20;3.20;;;;;;;-128.00;-1.00;-1.00;105718;1251;1004438;-77
2023/05/28 07:02:45;;;;;;;4.40;3.20;;;;;;;-128.00;-1.00;-1.00;105727;1251;1005041;-78
2023/05/28 07:05:12;;;;;;;3.80;3.00;;;;;;;-128.00;-1.00;-1.00;105735;1251;1003812;-77
2023/05/28 07:07:39;;;;;;;4.80;3.40;;;;;;;-128.00;-1.00;-1.00;105740;1251;1004005;-77
2023/05/28 07:10:06;;;;;;;5.40;3.30;;;;;;;-128.00;-1.00;-1.00;105752;1251;1004514;-77
2023/05/28 07:12:32;;;;;;;4.30;3.20;;;;;;;-128.00;-1.00;-1.00;105690;1251;1003358;-78
2023/05/28 07:14:59;;;;;;;5.80;3.30;;;;;;;-128.00;-1.00;-1.00;105725;1251;1003644;-78
2023/05/28 07:17:26;;;;;;;4.10;2.70;;;;;;;-128.00;-1.00;-1.00;105728;1252;1005207;-77
2023/05/28 07:19:52;;;;;;;6.90;3.30;;;;;;;-128.00;-1.00;-1.00;105741;1252;1005014;-78
2023/05/28 07:22:19;;;;;;;10.40;5.20;;;;;;;-128.00;-1.00;-1.00;105755;1251;1004797;-77
2023/05/28 07:24:45;;;;;;;5.60;3.90;;;;;;;-128.00;-1.00;-1.00;105710;1255;1003924;-78
2023/05/28 07:27:12;;;;;;;5.10;3.70;;;;;;;-128.00;-1.00;-1.00;105764;1251;1004658;-77
2023/05/28 07:29:39;;;;;;;6.00;3.30;;;;;;;-128.00;-1.00;-1.00;105686;1254;1004301;-76
2023/05/28 07:32:06;;;;;;;4.70;3.10;;;;;;;-128.00;-1.00;-1.00;105755;1251;1003800;-77
2023/05/28 07:34:32;;;;;;;4.30;3.20;;;;;;;-128.00;-1.00;-1.00;105701;1255;1003223;-76
2023/05/28 07:36:59;;;;;;;5.50;2.90;;;;;;;-128.00;-1.00;-1.00;105732;1251;1003504;-77
2023/05/28 07:39:25;;;;;;;8.00;3.20;;;;;;;-128.00;-1.00;-1.00;105727;1251;1004462;-77
2023/05/28 07:41:52;;;;;;;5.80;3.30;;;;;;;-128.00;-1.00;-1.00;105495;1251;1004706;-77
2023/05/28 07:44:19;;;;;;;4.40;2.60;;;;;;;-128.00;-1.00;-1.00;105731;1251;1003912;-77
2023/05/28 07:46:46;;;;;;;4.00;2.80;;;;;;;-128.00;-1.00;-1.00;105711;1251;1004579;-77
2023/05/28 07:49:12;;;;;;;3.50;2.70;;;;;;;-128.00;-1.00;-1.00;105735;1251;1004281;-77
2023/05/28 07:51:38;;;;;;;6.50;3.10;;;;;;;-128.00;-1.00;-1.00;105740;1251;1004244;-77
2023/05/28 07:54:05;;;;;;;4.30;3.00;;;;;;;-128.00;-1.00;-1.00;105764;1251;1005389;-77
2023/05/28 07:56:32;;;;;;;7.50;3.30;;;;;;;-128.00;-1.00;-1.00;105566;1251;1004498;-77
2023/05/28 07:58:58;;;;;;;3.80;2.80;;;;;;;-128.00;-1.00;-1.00;105744;1251;1003597;-77
2023/05/28 08:01:25;;;;;;;3.80;2.90;;;;;;;-128.00;-1.00;-1.00;105693;1251;1004021;-78
2023/05/28 08:03:54;;;;;;;4.20;3.00;;;;;;;-128.00;-1.00;-1.00;105766;1251;1003439;-77
2023/05/28 08:06:21;;;;;;;6.10;4.00;;;;;;;-128.00;-1.00;-1.00;105728;1255;1048024;-77
2023/05/28 08:08:47;;;;;;;5.10;3.30;;;;;;;-128.00;-1.00;-1.00;105716;1251;1003915;-78
2023/05/28 08:11:14;;;;;;;11.60;3.40;;;;;;;-128.00;-1.00;-1.00;105757;1251;1005015;-78
2023/05/28 08:13:41;;;;;;;5.80;2.90;;;;;;;-128.00;-1.00;-1.00;105692;1251;1004350;-78
2023/05/28 08:16:10;;;;;;;4.30;2.80;;;;;;;-128.00;-1.00;-1.00;105667;1251;1004414;-77
2023/05/28 08:18:39;;;;;;;3.90;2.10;;;;;;;-128.00;-1.00;-1.00;105723;1256;1048773;-78
2023/05/28 08:21:07;;;;;;;4.60;2.60;;;;;;;-128.00;-1.00;-1.00;105692;1251;1004795;-77
2023/05/28 08:23:34;;;;;;;4.90;2.80;;;;;;;-128.00;-1.00;-1.00;105757;1251;1004515;-78
2023/05/28 08:26:02;;;;;;;5.70;2.30;;;;;;;-128.00;-1.00;-1.00;105541;1251;1004089;-78
2023/05/28 08:28:29;;;;;;;5.10;2.60;;;;;;;-128.00;-1.00;-1.00;105726;1251;1004738;-78
2023/05/28 08:30:56;;;;;;;5.50;2.30;;;;;;;-128.00;-1.00;-1.00;105692;1251;1004132;-78
2023/05/28 08:33:23;;;;;;;5.70;2.70;;;;;;;-128.00;-1.00;-1.00;105763;1251;1003665;-77
2023/05/28 08:35:50;;;;;;;3.20;2.40;;;;;;;-128.00;-1.00;-1.00;105702;1251;1004847;-78
2023/05/28 08:38:16;;;;;;;2.90;2.40;;;;;;;-128.00;-1.00;-1.00;105729;1251;1003660;-77
2023/05/28 08:40:53;;;;;;;3.60;2.40;;;;;;;-128.00;-1.00;-1.00;105790;1251;1003641;-78
2023/05/28 08:43:20;;;;;;;5.40;2.20;;;;;;;-128.00;-1.00;-1.00;105530;1252;1046057;-77
2023/05/28 08:45:46;;;;;;;3.60;2.70;;;;;;;-128.00;-1.00;-1.00;105730;1256;1004412;-77
2023/05/28 08:48:14;;;;;;;3.40;2.20;;;;;;;-128.00;-1.00;-1.00;105784;1251;1004228;-77
2023/05/28 08:50:47;;;;;;;3.30;2.50;;;;;;;-128.00;-1.00;-1.00;105760;1251;1003704;-77
2023/05/28 08:53:19;;;;;;;4.90;2.20;;;;;;;-128.00;-1.00;-1.00;105716;1251;1043875;-78
2023/05/28 08:55:45;;;;;;;3.90;1.80;;;;;;;-128.00;-1.00;-1.00;105752;1251;1047853;-76
2023/05/28 08:58:13;;;;;;;3.40;2.30;;;;;;;-128.00;-1.00;-1.00;105738;1251;1004673;-78
2023/05/28 09:00:40;;;;;;;2.10;1.70;;;;;;;-128.00;-1.00;-1.00;105738;1251;1004147;-77
2023/05/28 09:03:07;;;;;;;2.90;2.00;;;;;;;-128.00;-1.00;-1.00;105744;1251;1004988;-77
2023/05/28 09:05:38;;;;;;;6.30;2.10;;;;;;;-128.00;-1.00;-1.00;105693;1251;1004733;-76
2023/05/28 09:08:10;;;;;;;3.60;2.30;;;;;;;-128.00;-1.00;-1.00;105725;1251;1046199;-78
2023/05/28 09:10:38;;;;;;;6.90;2.40;;;;;;;-128.00;-1.00;-1.00;105779;1251;1061932;-78
2023/05/28 09:13:05;;;;;;;5.00;2.40;;;;;;;-128.00;-1.00;-1.00;105742;1251;1004702;-78
2023/05/28 09:15:36;;;;;;;3.60;2.50;;;;;;;-128.00;-1.00;-1.00;105680;1251;1005006;-79
2023/05/28 09:18:04;;;;;;;3.40;1.90;;;;;;;-128.00;-1.00;-1.00;105631;1251;1045180;-77
2023/05/28 09:20:31;;;;;;;6.00;2.50;;;;;;;-128.00;-1.00;-1.00;105670;1251;1047457;-78
2023/05/28 09:23:06;;;;;;;5.20;2.60;;;;;;;-128.00;-1.00;-1.00;105687;1251;1004140;-78
2023/05/28 09:25:36;;;;;;;4.30;2.20;;;;;;;-128.00;-1.00;-1.00;105718;1251;1055919;-77
2023/05/28 09:28:03;;;;;;;4.30;2.20;;;;;;;-128.00;-1.00;-1.00;105729;1251;1058855;-77
2023/05/28 09:30:35;;;;;;;6.40;2.40;;;;;;;-128.00;-1.00;-1.00;105553;1251;1004092;-77
2023/05/28 09:33:03;;;;;;;3.60;2.30;;;;;;;-128.00;-1.00;-1.00;105777;1251;1046883;-78
2023/05/28 09:35:30;;;;;;;4.70;1.90;;;;;;;-128.00;-1.00;-1.00;105695;1251;1061544;-77
2023/05/28 09:38:02;;;;;;;5.60;2.30;;;;;;;-128.00;-1.00;-1.00;105714;1251;1004404;-77
2023/05/28 09:40:29;;;;;;;4.90;2.10;;;;;;;-128.00;-1.00;-1.00;105746;1251;1059051;-77
2023/05/28 09:42:55;;;;;;;6.70;2.00;;;;;;;-128.00;-1.00;-1.00;105705;1251;1004901;-77
2023/05/28 09:45:24;;;;;;;4.50;1.60;;;;;;;-128.00;-1.00;-1.00;105701;1251;1003896;-77
2023/05/28 09:47:51;;;;;;;5.40;2.10;;;;;;;-128.00;-1.00;-1.00;105738;1251;1061108;-78
2023/05/28 09:50:18;;;;;;;4.80;2.00;;;;;;;-128.00;-1.00;-1.00;105732;1251;1004076;-78
2023/05/28 09:52:46;;;;;;;5.10;2.30;;;;;;;-128.00;-1.00;-1.00;105729;1251;1004071;-78
2023/05/28 09:55:15;;;;;;;4.90;2.00;;;;;;;-128.00;-1.00;-1.00;105755;1251;1003484;-76
2023/05/28 09:57:53;;;;;;;3.40;2.20;;;;;;;-128.00;-1.00;-1.00;105723;1251;1046704;-76
2023/05/28 10:00:29;;;;;;;4.70;2.00;;;;;;;-128.00;-1.00;-1.00;105692;1251;1061541;-78
2023/05/28 10:03:10;;;;;;;7.60;2.70;;;;;;;-128.00;-1.00;-1.00;105752;1251;1056037;-77
2023/05/28 10:05:39;;;;;;;3.10;1.70;;;;;;;-128.00;-1.00;-1.00;105708;1251;1060047;-78
2023/05/28 10:08:11;;;;;;;6.20;2.20;;;;;;;-128.00;-1.00;-1.00;105668;1251;1045269;-77
2023/05/28 10:10:40;;;;;;;3.90;2.40;;;;;;;-128.00;-1.00;-1.00;105679;1251;1047585;-77
2023/05/28 10:13:09;;;;;;;2.90;2.20;;;;;;;-128.00;-1.00;-1.00;105787;1251;1062269;-77
2023/05/28 10:15:36;;;;;;;5.90;2.40;;;;;;;-128.00;-1.00;-1.00;105755;1251;1055912;-78
2023/05/28 10:18:03;;;;;;;7.20;3.20;;;;;;;-128.00;-1.00;-1.00;105722;1251;1005051;-77
2023/05/28 10:20:30;;;;;;;4.40;2.20;;;;;;;-128.00;-1.00;-1.00;105696;1251;1004683;-77
2023/05/28 10:22:57;;;;;;;5.90;2.80;;;;;;;-128.00;-1.00;-1.00;105724;1251;1005171;-77
2023/05/28 10:25:25;;;;;;;5.70;2.90;;;;;;;-128.00;-1.00;-1.00;105700;1251;1003592;-78
2023/05/28 10:27:58;;;;;;;4.50;3.00;;;;;;;-128.00;-1.00;-1.00;105744;1251;1004336;-77
2023/05/28 10:30:35;;;;;;;7.20;3.50;;;;;;;-128.00;-1.00;-1.00;105628;1251;1058810;-78
2023/05/28 10:33:11;;;;;;;3.80;2.20;;;;;;;-128.00;-1.00;-1.00;105745;1251;1044263;-78
2023/05/28 10:35:51;;;;;;;2.90;1.80;;;;;;;-128.00;-1.00;-1.00;105649;1251;1046940;-77
2023/05/28 10:38:18;;;;;;;5.20;2.30;;;;;;;-128.00;-1.00;-1.00;105546;1251;1061865;-78
2023/05/28 10:40:45;;;;;;;3.10;1.80;;;;;;;-128.00;-1.00;-1.00;105761;1251;1004064;-78
2023/05/28 10:43:40;;;;;;;7.30;2.20;;;;;;;-128.00;-1.00;-1.00;105707;1251;1004178;-77
2023/05/28 10:46:25;;;;;;;2.20;2.00;;;;;;;-128.00;-1.00;-1.00;105555;1251;1044947;-77
2023/05/28 10:49:08;;;;;;;2.80;2.20;;;;;;;-128.00;-1.00;-1.00;105737;1251;1047772;-77
2023/05/28 10:52:00;;;;;;;3.70;2.20;;;;;;;-128.00;-1.00;-1.00;105684;1251;1061423;-77
2023/05/28 10:54:30;;;;;;;3.40;1.80;;;;;;;-128.00;-1.00;-1.00;105770;1251;1055203;-77
2023/05/28 10:57:17;;;;;;;3.10;2.10;;;;;;;-128.00;-1.00;-1.00;105688;1251;1059751;-77
2023/05/28 10:59:51;;;;;;;3.70;1.70;;;;;;;-128.00;-1.00;-1.00;105680;1251;1045517;-77
2023/05/28 11:02:26;;;;;;;3.40;1.90;;;;;;;-128.00;-1.00;-1.00;105387;1251;1046667;-77
2023/05/28 11:04:55;;;;;;;3.00;1.80;;;;;;;-128.00;-1.00;-1.00;105722;1251;1062678;-76
2023/05/28 11:07:29;;;;;;;6.00;2.30;;;;;;;-128.00;-1.00;-1.00;105791;1251;1055664;-77
2023/05/28 11:09:57;;;;;;;3.70;1.80;;;;;;;-128.00;-1.00;-1.00;105632;1251;1058076;-78
2023/05/28 11:12:28;;;;;;;4.00;1.60;;;;;;;-128.00;-1.00;-1.00;105700;1251;1004448;-78
2023/05/28 11:14:55;;;;;;;2.90;2.10;;;;;;;-128.00;-1.00;-1.00;105718;1251;1046079;-77
2023/05/28 11:17:22;;;;;;;4.10;2.20;;;;;;;-128.00;-1.00;-1.00;105716;1251;1003889;-78
2023/05/28 11:19:50;;;;;;;3.50;2.20;;;;;;;-128.00;-1.00;-1.00;105784;1251;1003997;-78